Time;durP1;ratioP1;P1;durP2;ratioP2;P2;SDS_P1;SDS_P2;PMS_P1;PMS_P2;Temp;Humidity;BMP_temperature;BMP_pressure;BME280_temperature;BME280_humidity;BME280_pressure;Samples;Min_cycle;Max_cycle;Signal;HPM_P1;HPM_P2
2023/04/01 00:00:45;;;;;;;0.77;0.77;;;;;;;;;;5028770;28;20179;-81
2023/04/01 00:03:11;;;;;;;0.60;0.60;;;;;;;;;;5027668;28;20203;-80
2023/04/01 00:05:37;;;;;;;0.60;0.60;;;;;;;;;;5028276;28;20177;-80
2023/04/01 00:08:03;;;;;;;0.67;0.67;;;;;;;;;;5027610;28;20203;-80
2023/04/01 00:10:29;;;;;;;0.63;0.63;;;;;;;;;;5027964;28;20180;-80
2023/04/01 00:12:55;;;;;;;0.60;0.60;;;;;;;;;;5028210;28;20192;-80
2023/04/01 00:15:21;;;;;;;0.70;0.70;;;;;;;;;;5028577;28;20208;-79
2023/04/01 00:17:48;;;;;;;0.63;0.63;;;;;;;;;;5028470;28;20383;-81
2023/04/01 00:20:14;;;;;;;0.60;0.60;;;;;;;;;;5029213;28;20177;-81
2023/04/01 00:22:41;;;;;;;0.60;0.60;;;;;;;;;;5028100;28;20594;-81
2023/04/01 00:25:07;;;;;;;0.67;0.67;;;;;;;;;;5031028;28;20260;-81
2023/04/01 00:27:33;;;;;;;0.70;0.70;;;;;;;;;;5030188;28;20188;-80
2023/04/01 00:29:59;;;;;;;0.67;0.67;;;;;;;;;;5029160;28;20189;-80
2023/04/01 00:32:26;;;;;;;0.70;0.70;;;;;;;;;;5029647;28;20184;-81
2023/04/01 00:34:52;;;;;;;0.60;0.60;;;;;;;;;;5027574;28;20196;-81
2023/04/01 00:37:18;;;;;;;0.70;0.70;;;;;;;;;;5028015;28;20216;-79
2023/04/01 00:39:45;;;;;;;0.70;0.70;;;;;;;;;;5027847;28;20172;-81
2023/04/01 00:42:12;;;;;;;0.60;0.60;;;;;;;;;;5028328;28;20210;-81
2023/04/01 00:44:38;;;;;;;0.70;0.70;;;;;;;;;;5027375;28;20196;-81
2023/04/01 00:47:04;;;;;;;0.63;0.63;;;;;;;;;;5029081;28;20201;-81
2023/04/01 00:49:32;;;;;;;0.57;0.57;;;;;;;;;;5029637;28;20180;-80
2023/04/01 00:52:00;;;;;;;0.60;0.60;;;;;;;;;;5028759;28;20636;-80
2023/04/01 00:54:27;;;;;;;0.60;0.60;;;;;;;;;;5023438;28;20204;-82
2023/04/01 00:56:55;;;;;;;0.70;0.70;;;;;;;;;;5019518;28;20211;-81
2023/04/01 00:59:23;;;;;;;0.70;0.70;;;;;;;;;;5019844;28;20180;-80
2023/04/01 01:01:49;;;;;;;0.67;0.67;;;;;;;;;;5019231;28;20624;-81
2023/04/01 01:04:26;;;;;;;0.70;0.70;;;;;;;;;;5019145;28;20188;-80
2023/04/01 01:07:04;;;;;;;0.60;0.60;;;;;;;;;;5018561;28;20360;-81
2023/04/01 01:09:39;;;;;;;0.73;0.73;;;;;;;;;;5019024;28;20216;-82
2023/04/01 01:12:09;;;;;;;0.70;0.70;;;;;;;;;;5018129;28;20182;-80
2023/04/01 01:14:49;;;;;;;0.60;0.60;;;;;;;;;;5017626;28;20192;-80
2023/04/01 01:17:27;;;;;;;0.60;0.60;;;;;;;;;;5018782;28;20342;-81
2023/04/01 01:19:53;;;;;;;0.70;0.70;;;;;;;;;;5019228;28;20240;-81
2023/04/01 01:22:38;;;;;;;0.70;0.70;;;;;;;;;;5019834;28;20195;-81
2023/04/01 01:25:10;;;;;;;0.70;0.70;;;;;;;;;;5020689;28;20176;-80
2023/04/01 01:27:40;;;;;;;0.60;0.60;;;;;;;;;;5020027;28;20207;-81
2023/04/01 01:30:10;;;;;;;0.70;0.70;;;;;;;;;;5019881;28;20547;-80
2023/04/01 01:32:48;;;;;;;0.77;0.77;;;;;;;;;;5021238;28;20177;-81
2023/04/01 01:35:14;;;;;;;0.60;0.60;;;;;;;;;;5022440;28;20240;-79
2023/04/01 01:37:41;;;;;;;0.70;0.70;;;;;;;;;;5028755;28;20224;-79
2023/04/01 01:40:10;;;;;;;0.70;0.70;;;;;;;;;;5028528;28;20208;-81
2023/04/01 01:42:38;;;;;;;0.77;0.77;;;;;;;;;;5017313;28;20522;-81
2023/04/01 01:45:05;;;;;;;0.70;0.70;;;;;;;;;;5017084;28;20703;-81
2023/04/01 01:47:32;;;;;;;0.70;0.70;;;;;;;;;;5019320;28;20519;-79
2023/04/01 01:49:58;;;;;;;0.70;0.70;;;;;;;;;;5019349;28;20177;-79
2023/04/01 01:52:24;;;;;;;0.70;0.70;;;;;;;;;;5018032;28;20222;-81
2023/04/01 01:54:51;;;;;;;0.70;0.70;;;;;;;;;;5019690;28;20636;-80
2023/04/01 01:57:18;;;;;;;0.80;0.80;;;;;;;;;;5020406;28;20211;-80
2023/04/01 01:59:46;;;;;;;0.70;0.70;;;;;;;;;;5023725;28;20181;-80
2023/04/01 02:02:14;;;;;;;0.60;0.60;;;;;;;;;;5020967;28;20176;-81
2023/04/01 02:04:41;;;;;;;0.63;0.63;;;;;;;;;;5019337;28;20279;-80
2023/04/01 02:07:13;;;;;;;0.60;0.60;;;;;;;;;;5019027;28;20172;-80
2023/04/01 02:09:39;;;;;;;0.60;0.60;;;;;;;;;;5019113;28;20672;-81
2023/04/01 02:12:07;;;;;;;0.60;0.60;;;;;;;;;;5019500;28;20177;-82
2023/04/01 02:14:45;;;;;;;0.70;0.70;;;;;;;;;;5017868;28;20287;-81
2023/04/01 02:17:14;;;;;;;0.70;0.70;;;;;;;;;;5019028;28;20207;-80
2023/04/01 02:19:47;;;;;;;0.70;0.70;;;;;;;;;;5020296;28;20172;-81
2023/04/01 02:22:16;;;;;;;0.60;0.60;;;;;;;;;;5030589;28;20545;-80
2023/04/01 02:24:42;;;;;;;0.70;0.70;;;;;;;;;;5036005;28;20208;-80
2023/04/01 02:27:09;;;;;;;0.60;0.60;;;;;;;;;;5037820;28;20172;-81
2023/04/01 02:29:35;;;;;;;0.63;0.63;;;;;;;;;;5038360;28;20227;-81
2023/04/01 02:32:02;;;;;;;0.60;0.60;;;;;;;;;;5034992;28;20588;-83
2023/04/01 02:34:29;;;;;;;0.80;0.80;;;;;;;;;;5028463;28;20197;-80
2023/04/01 02:36:55;;;;;;;0.60;0.60;;;;;;;;;;5030290;28;20224;-79
2023/04/01 02:39:22;;;;;;;0.80;0.80;;;;;;;;;;5030007;28;20173;-79
2023/04/01 02:41:48;;;;;;;0.60;0.60;;;;;;;;;;5031312;28;20176;-80
2023/04/01 02:44:14;;;;;;;0.80;0.80;;;;;;;;;;5030492;28;20200;-79
2023/04/01 02:46:41;;;;;;;0.70;0.70;;;;;;;;;;5024715;28;20275;-83
2023/04/01 02:49:07;;;;;;;0.70;0.70;;;;;;;;;;5022285;28;20722;-80
2023/04/01 02:51:33;;;;;;;0.80;0.80;;;;;;;;;;5021469;28;20843;-81
2023/04/01 02:53:59;;;;;;;0.70;0.70;;;;;;;;;;5021038;28;20203;-81
2023/04/01 02:56:25;;;;;;;0.70;0.70;;;;;;;;;;5021562;28;20208;-82
2023/04/01 02:58:51;;;;;;;0.70;0.70;;;;;;;;;;5021711;28;20177;-81
2023/04/01 03:01:17;;;;;;;0.60;0.60;;;;;;;;;;5021475;28;20184;-80
2023/04/01 03:03:43;;;;;;;0.70;0.70;;;;;;;;;;5021105;28;20204;-82
2023/04/01 03:06:11;;;;;;;0.70;0.70;;;;;;;;;;5021209;28;20176;-81
2023/04/01 03:08:37;;;;;;;0.70;0.70;;;;;;;;;;5023127;28;20183;-81
2023/04/01 03:11:03;;;;;;;0.70;0.70;;;;;;;;;;5022942;28;20185;-80
2023/04/01 03:13:29;;;;;;;0.60;0.60;;;;;;;;;;5027169;28;20196;-81
2023/04/01 03:15:55;;;;;;;0.70;0.70;;;;;;;;;;5028120;28;20199;-81
2023/04/01 03:18:21;;;;;;;0.70;0.70;;;;;;;;;;5026689;28;20191;-81
2023/04/01 03:20:48;;;;;;;0.60;0.60;;;;;;;;;;5029150;28;20612;-81
2023/04/01 03:23:16;;;;;;;0.60;0.60;;;;;;;;;;5027570;28;20197;-80
2023/04/01 03:25:42;;;;;;;0.60;0.60;;;;;;;;;;5028125;28;20196;-80
2023/04/01 03:28:08;;;;;;;0.60;0.60;;;;;;;;;;5027173;28;20223;-79
2023/04/01 03:30:34;;;;;;;0.60;0.60;;;;;;;;;;5026074;28;20186;-81
2023/04/01 03:33:01;;;;;;;0.70;0.70;;;;;;;;;;5024164;28;20232;-81
2023/04/01 03:35:27;;;;;;;0.60;0.60;;;;;;;;;;5024442;28;20207;-79
2023/04/01 03:37:54;;;;;;;0.70;0.70;;;;;;;;;;5018268;28;20302;-80
2023/04/01 03:40:20;;;;;;;0.70;0.70;;;;;;;;;;5018228;28;20179;-81
2023/04/01 03:42:46;;;;;;;0.70;0.70;;;;;;;;;;5017239;28;20250;-81
2023/04/01 03:45:13;;;;;;;0.60;0.60;;;;;;;;;;5018124;28;20180;-82
2023/04/01 03:47:39;;;;;;;0.60;0.60;;;;;;;;;;5018397;28;20181;-81
2023/04/01 03:50:06;;;;;;;0.70;0.70;;;;;;;;;;5018235;28;20585;-81
2023/04/01 03:52:32;;;;;;;0.70;0.70;;;;;;;;;;5018780;28;20406;-82
2023/04/01 03:54:57;;;;;;;0.60;0.60;;;;;;;;;;5019758;28;20676;-81
2023/04/01 03:57:24;;;;;;;0.60;0.60;;;;;;;;;;5019489;28;20208;-80
2023/04/01 03:59:50;;;;;;;0.70;0.70;;;;;;;;;;5018487;28;20231;-80
2023/04/01 04:02:16;;;;;;;0.70;0.70;;;;;;;;;;5018075;28;20710;-81
2023/04/01 04:04:42;;;;;;;0.70;0.70;;;;;;;;;;5018234;28;20196;-81
2023/04/01 04:07:08;;;;;;;0.70;0.70;;;;;;;;;;5018949;28;20180;-80
2023/04/01 04:09:34;;;;;;;0.70;0.70;;;;;;;;;;5015572;28;20215;-81
2023/04/01 04:12:01;;;;;;;0.60;0.60;;;;;;;;;;5018761;28;20706;-79
2023/04/01 04:14:27;;;;;;;0.70;0.70;;;;;;;;;;5018064;28;20207;-82
2023/04/01 04:16:53;;;;;;;0.67;0.67;;;;;;;;;;5017511;28;20217;-80
2023/04/01 04:19:19;;;;;;;0.70;0.70;;;;;;;;;;5018929;28;20330;-80
2023/04/01 04:21:45;;;;;;;0.70;0.70;;;;;;;;;;5019066;28;20256;-81
2023/04/01 04:24:11;;;;;;;0.60;0.60;;;;;;;;;;5017868;28;20299;-82
2023/04/01 04:26:37;;;;;;;0.70;0.70;;;;;;;;;;5018113;28;20172;-81
2023/04/01 04:29:03;;;;;;;0.60;0.60;;;;;;;;;;5018504;28;20187;-81
2023/04/01 04:31:29;;;;;;;0.60;0.60;;;;;;;;;;5017978;28;20185;-82
2023/04/01 04:33:55;;;;;;;0.60;0.60;;;;;;;;;;5016383;28;20197;-81
2023/04/01 04:36:21;;;;;;;0.70;0.70;;;;;;;;;;5016432;28;20220;-81
2023/04/01 04:38:47;;;;;;;0.60;0.60;;;;;;;;;;5017515;28;20172;-83
2023/04/01 04:41:14;;;;;;;0.70;0.70;;;;;;;;;;5017267;28;20202;-81
2023/04/01 04:43:40;;;;;;;0.67;0.67;;;;;;;;;;5017350;28;20215;-81
2023/04/01 04:46:07;;;;;;;0.60;0.60;;;;;;;;;;5017862;28;20169;-83
2023/04/01 04:48:33;;;;;;;0.60;0.60;;;;;;;;;;5017990;28;20593;-81
2023/04/01 04:51:00;;;;;;;0.60;0.60;;;;;;;;;;5016202;28;20169;-81
2023/04/01 04:53:26;;;;;;;0.70;0.70;;;;;;;;;;5015482;28;20201;-82
2023/04/01 04:55:52;;;;;;;0.70;0.70;;;;;;;;;;5018268;28;20562;-81
2023/04/01 04:58:18;;;;;;;0.70;0.70;;;;;;;;;;5018498;28;20181;-82
2023/04/01 05:00:45;;;;;;;0.80;0.80;;;;;;;;;;5018354;28;20176;-80
2023/04/01 05:03:11;;;;;;;0.63;0.63;;;;;;;;;;5017966;28;20556;-81
2023/04/01 05:05:37;;;;;;;0.70;0.70;;;;;;;;;;5017976;28;20184;-82
2023/04/01 05:08:03;;;;;;;0.70;0.70;;;;;;;;;;5018048;28;20215;-82
2023/04/01 05:10:30;;;;;;;0.70;0.70;;;;;;;;;;5017565;28;20180;-83
2023/04/01 05:12:56;;;;;;;0.70;0.70;;;;;;;;;;5016768;28;20709;-81
2023/04/01 05:15:22;;;;;;;0.70;0.70;;;;;;;;;;5018721;28;20172;-82
2023/04/01 05:17:48;;;;;;;0.70;0.70;;;;;;;;;;5018404;28;20231;-81
2023/04/01 05:20:15;;;;;;;0.70;0.70;;;;;;;;;;5018851;28;20180;-82
2023/04/01 05:22:41;;;;;;;0.60;0.60;;;;;;;;;;5021129;28;20177;-82
2023/04/01 05:25:07;;;;;;;0.60;0.60;;;;;;;;;;5020775;28;20176;-81
2023/04/01 05:27:33;;;;;;;0.70;0.70;;;;;;;;;;5027085;28;20177;-81
2023/04/01 05:29:59;;;;;;;0.70;0.70;;;;;;;;;;5029420;28;20191;-81
2023/04/01 05:32:26;;;;;;;0.60;0.60;;;;;;;;;;5023351;28;20668;-79
2023/04/01 05:34:52;;;;;;;0.73;0.73;;;;;;;;;;5016817;28;20204;-82
2023/04/01 05:37:18;;;;;;;0.70;0.70;;;;;;;;;;5017412;28;20224;-80
2023/04/01 05:39:44;;;;;;;0.70;0.70;;;;;;;;;;5017137;28;20636;-80
2023/04/01 05:42:10;;;;;;;0.60;0.60;;;;;;;;;;5017570;28;20176;-80
2023/04/01 05:44:36;;;;;;;0.60;0.60;;;;;;;;;;5015961;28;20214;-80
2023/04/01 05:47:03;;;;;;;0.60;0.60;;;;;;;;;;5016317;28;20189;-81
2023/04/01 05:49:30;;;;;;;0.60;0.60;;;;;;;;;;5016626;28;20172;-81
2023/04/01 05:51:56;;;;;;;0.60;0.60;;;;;;;;;;5016746;28;20636;-81
2023/04/01 05:54:22;;;;;;;0.70;0.70;;;;;;;;;;5016092;28;20529;-81
2023/04/01 05:56:48;;;;;;;0.60;0.60;;;;;;;;;;5016857;28;20214;-80
2023/04/01 05:59:14;;;;;;;0.70;0.70;;;;;;;;;;5016446;28;20268;-81
2023/04/01 06:01:40;;;;;;;0.70;0.70;;;;;;;;;;5013378;28;20185;-80
2023/04/01 06:04:06;;;;;;;0.60;0.60;;;;;;;;;;5012990;28;20307;-81
2023/04/01 06:06:33;;;;;;;0.67;0.67;;;;;;;;;;5015046;28;20207;-80
2023/04/01 06:09:02;;;;;;;0.60;0.60;;;;;;;;;;5016145;28;20179;-80
2023/04/01 06:11:35;;;;;;;0.60;0.60;;;;;;;;;;5013819;28;20184;-80
2023/04/01 06:14:08;;;;;;;0.70;0.70;;;;;;;;;;5013850;28;20226;-80
2023/04/01 06:16:34;;;;;;;0.70;0.70;;;;;;;;;;5009722;28;20286;-81
2023/04/01 06:19:06;;;;;;;0.67;0.67;;;;;;;;;;5013173;28;20180;-79
2023/04/01 06:21:42;;;;;;;0.50;0.50;;;;;;;;;;5014273;28;20187;-81
2023/04/01 06:24:13;;;;;;;0.60;0.60;;;;;;;;;;5012832;28;20195;-81
2023/04/01 06:26:50;;;;;;;0.80;0.80;;;;;;;;;;5014000;28;20177;-80
2023/04/01 06:29:35;;;;;;;0.80;0.80;;;;;;;;;;5015775;28;20215;-81
2023/04/01 06:32:01;;;;;;;0.60;0.60;;;;;;;;;;5009579;28;20180;-80
2023/04/01 06:34:39;;;;;;;0.70;0.70;;;;;;;;;;5015200;28;20193;-81
2023/04/01 06:37:19;;;;;;;0.70;0.70;;;;;;;;;;5015462;28;20597;-81
2023/04/01 06:39:51;;;;;;;0.70;0.70;;;;;;;;;;5014391;28;20240;-79
2023/04/01 06:42:26;;;;;;;0.60;0.60;;;;;;;;;;5016153;28;20177;-81
2023/04/01 06:45:09;;;;;;;0.60;0.60;;;;;;;;;;5016111;28;20214;-83
2023/04/01 06:47:35;;;;;;;0.70;0.70;;;;;;;;;;5015217;28;20831;-81
2023/04/01 06:50:20;;;;;;;0.70;0.70;;;;;;;;;;5015701;28;20246;-82
2023/04/01 06:52:52;;;;;;;0.83;0.83;;;;;;;;;;5015715;28;20694;-80
2023/04/01 06:55:30;;;;;;;0.60;0.60;;;;;;;;;;5017418;28;20647;-80
2023/04/01 06:57:58;;;;;;;0.63;0.63;;;;;;;;;;5019813;28;20215;-81
2023/04/01 07:00:35;;;;;;;0.70;0.70;;;;;;;;;;5028975;28;20199;-83
2023/04/01 07:03:08;;;;;;;0.60;0.60;;;;;;;;;;5018281;28;20201;-81
2023/04/01 07:05:35;;;;;;;0.80;0.80;;;;;;;;;;5018986;28;20690;-81
2023/04/01 07:08:03;;;;;;;0.60;0.60;;;;;;;;;;5022002;28;20184;-80
2023/04/01 07:10:42;;;;;;;0.80;0.80;;;;;;;;;;5024597;28;20200;-80
2023/04/01 07:13:13;;;;;;;0.70;0.70;;;;;;;;;;5023601;28;20204;-81
2023/04/01 07:15:41;;;;;;;0.70;0.70;;;;;;;;;;5023638;28;20177;-81
2023/04/01 07:18:13;;;;;;;0.70;0.70;;;;;;;;;;5022884;28;20208;-82
2023/04/01 07:20:39;;;;;;;0.60;0.60;;;;;;;;;;5021574;28;20260;-82
2023/04/01 07:23:07;;;;;;;0.63;0.63;;;;;;;;;;5018659;28;20197;-81
2023/04/01 07:25:44;;;;;;;0.90;0.90;;;;;;;;;;5022764;28;20598;-80
2023/04/01 07:28:18;;;;;;;0.60;0.60;;;;;;;;;;5023721;28;20176;-81
2023/04/01 07:30:44;;;;;;;0.60;0.60;;;;;;;;;;5024113;28;20177;-81
2023/04/01 07:33:13;;;;;;;0.67;0.67;;;;;;;;;;5023500;28;20211;-81
2023/04/01 07:36:05;;;;;;;0.70;0.70;;;;;;;;;;5024040;28;20238;-81
2023/04/01 07:38:34;;;;;;;0.70;0.70;;;;;;;;;;5022880;28;20720;-80
2023/04/01 07:41:06;;;;;;;0.70;0.70;;;;;;;;;;5031473;28;20185;-81
2023/04/01 07:43:43;;;;;;;0.70;0.70;;;;;;;;;;5028192;28;20196;-81
2023/04/01 07:46:18;;;;;;;0.70;0.70;;;;;;;;;;5033767;28;20191;-82
2023/04/01 07:49:16;;;;;;;0.70;0.70;;;;;;;;;;5031397;28;20164;-81
2023/04/01 07:51:54;;;;;;;0.60;0.60;;;;;;;;;;5030857;28;20181;-83
2023/04/01 07:54:28;;;;;;;0.70;0.70;;;;;;;;;;5019370;28;20691;-81
2023/04/01 07:57:06;;;;;;;0.70;0.70;;;;;;;;;;5020933;28;20212;-81
2023/04/01 07:59:51;;;;;;;0.70;0.70;;;;;;;;;;5011665;28;20188;-81
2023/04/01 08:02:36;;;;;;;0.73;0.73;;;;;;;;;;5019251;28;20214;-81
2023/04/01 08:05:10;;;;;;;0.70;0.70;;;;;;;;;;5021148;28;20182;-80
2023/04/01 08:07:36;;;;;;;0.70;0.70;;;;;;;;;;5021192;28;20755;-81
2023/04/01 08:10:05;;;;;;;0.60;0.60;;;;;;;;;;5021860;28;20215;-80
2023/04/01 08:12:50;;;;;;;0.60;0.60;;;;;;;;;;5020350;28;20197;-81
2023/04/01 08:15:27;;;;;;;0.60;0.60;;;;;;;;;;5014775;28;20184;-80
2023/04/01 08:18:11;;;;;;;0.70;0.70;;;;;;;;;;5017035;28;20218;-80
2023/04/01 08:20:40;;;;;;;0.67;0.67;;;;;;;;;;5018560;28;20173;-81
2023/04/01 08:23:12;;;;;;;0.70;0.70;;;;;;;;;;5019756;28;20295;-83
2023/04/01 08:25:39;;;;;;;0.60;0.60;;;;;;;;;;5019471;28;20598;-82
2023/04/01 08:28:08;;;;;;;0.70;0.70;;;;;;;;;;5020656;28;20227;-82
2023/04/01 08:30:44;;;;;;;0.70;0.70;;;;;;;;;;5019839;28;20612;-82
2023/04/01 08:33:14;;;;;;;0.70;0.70;;;;;;;;;;5018131;28;20200;-81
2023/04/01 08:35:43;;;;;;;0.60;0.60;;;;;;;;;;5019979;28;20185;-82
2023/04/01 08:38:14;;;;;;;0.70;0.70;;;;;;;;;;5019817;28;20686;-82
2023/04/01 08:40:58;;;;;;;0.63;0.63;;;;;;;;;;5024491;28;20211;-81
2023/04/01 08:43:30;;;;;;;0.70;0.70;;;;;;;;;;5016937;28;20195;-81
2023/04/01 08:46:03;;;;;;;0.67;0.67;;;;;;;;;;5018634;28;20176;-82
2023/04/01 08:48:48;;;;;;;0.70;0.70;;;;;;;;;;5014079;28;20671;-84
2023/04/01 08:51:14;;;;;;;0.60;0.60;;;;;;;;;;5031483;28;20274;-83
2023/04/01 08:53:59;;;;;;;0.80;0.80;;;;;;;;;;5038017;28;20674;-84
2023/04/01 08:56:35;;;;;;;0.70;0.70;;;;;;;;;;5021760;28;20223;-83
2023/04/01 08:59:10;;;;;;;0.60;0.60;;;;;;;;;;5018058;28;20834;-83
2023/04/01 09:01:59;;;;;;;0.70;0.70;;;;;;;;;;5018755;28;20172;-82
2023/04/01 09:04:44;;;;;;;0.80;0.80;;;;;;;;;;5035750;28;20195;-83
2023/04/01 09:07:12;;;;;;;0.70;0.70;;;;;;;;;;5004574;28;20208;-83
2023/04/01 09:09:54;;;;;;;0.80;0.80;;;;;;;;;;5027808;28;20267;-83
2023/04/01 09:12:42;;;;;;;0.70;0.70;;;;;;;;;;5043248;28;20195;-82
2023/04/01 09:15:14;;;;;;;0.80;0.80;;;;;;;;;;5047272;28;20164;-82
2023/04/01 09:17:59;;;;;;;0.70;0.70;;;;;;;;;;5036337;28;20302;-82
2023/04/01 09:20:31;;;;;;;0.63;0.63;;;;;;;;;;5038110;28;20195;-84
2023/04/01 09:23:09;;;;;;;0.77;0.77;;;;;;;;;;5015162;28;20220;-81
2023/04/01 09:25:35;;;;;;;0.70;0.70;;;;;;;;;;5016970;28;20725;-80
2023/04/01 09:28:01;;;;;;;0.60;0.60;;;;;;;;;;5017393;28;20177;-82
2023/04/01 09:30:39;;;;;;;0.60;0.60;;;;;;;;;;5032433;28;20725;-82
2023/04/01 09:33:15;;;;;;;0.70;0.70;;;;;;;;;;5019934;28;20192;-79
2023/04/01 09:35:57;;;;;;;0.70;0.70;;;;;;;;;;5012091;28;20196;-84
2023/04/01 09:38:43;;;;;;;0.70;0.70;;;;;;;;;;5016164;28;20228;-82
2023/04/01 09:41:19;;;;;;;0.80;0.80;;;;;;;;;;5022508;28;20274;-83
2023/04/01 09:43:44;;;;;;;0.70;0.70;;;;;;;;;;5014545;28;20322;-83
2023/04/01 09:46:25;;;;;;;0.70;0.70;;;;;;;;;;5015959;28;20188;-81
2023/04/01 09:49:10;;;;;;;0.70;0.70;;;;;;;;;;5017492;28;20188;-84
2023/04/01 09:51:55;;;;;;;0.60;0.60;;;;;;;;;;5014288;28;20172;-83
2023/04/01 09:54:30;;;;;;;0.60;0.60;;;;;;;;;;5013080;28;20193;-82
2023/04/01 09:57:20;;;;;;;0.60;0.60;;;;;;;;;;5017436;28;20239;-83
2023/04/01 09:59:58;;;;;;;0.70;0.70;;;;;;;;;;5017296;28;20239;-83
2023/04/01 10:02:43;;;;;;;0.60;0.60;;;;;;;;;;5015894;28;20184;-80
2023/04/01 10:05:27;;;;;;;0.70;0.70;;;;;;;;;;5015876;28;20215;-83
2023/04/01 10:08:06;;;;;;;0.70;0.70;;;;;;;;;;5016409;28;20556;-80
2023/04/01 10:10:38;;;;;;;0.70;0.70;;;;;;;;;;5018393;28;20187;-82
2023/04/01 10:13:04;;;;;;;0.70;0.70;;;;;;;;;;5012411;28;20256;-81
2023/04/01 10:15:48;;;;;;;0.80;0.80;;;;;;;;;;5015140;28;20192;-86
2023/04/01 10:18:29;;;;;;;0.60;0.60;;;;;;;;;;5016626;28;20292;-83
2023/04/01 10:21:06;;;;;;;0.60;0.60;;;;;;;;;;5016801;28;20655;-82
2023/04/01 10:23:45;;;;;;;0.70;0.70;;;;;;;;;;5020318;28;20537;-82
2023/04/01 10:26:23;;;;;;;0.70;0.70;;;;;;;;;;5018347;28;20172;-83
2023/04/01 10:28:49;;;;;;;0.70;0.70;;;;;;;;;;5016815;28;20184;-82
2023/04/01 10:31:33;;;;;;;0.60;0.60;;;;;;;;;;5017362;28;20203;-83
2023/04/01 10:34:18;;;;;;;0.70;0.70;;;;;;;;;;5033514;28;20259;-84
2023/04/01 10:37:03;;;;;;;0.70;0.70;;;;;;;;;;5025461;28;20215;-80
2023/04/01 10:39:39;;;;;;;0.70;0.70;;;;;;;;;;5024874;28;20327;-82
2023/04/01 10:42:31;;;;;;;0.80;0.80;;;;;;;;;;5036137;28;20282;-80
2023/04/01 10:45:15;;;;;;;0.70;0.70;;;;;;;;;;5026097;28;20196;-80
2023/04/01 10:47:41;;;;;;;0.63;0.63;;;;;;;;;;5039122;28;20179;-81
2023/04/01 10:50:13;;;;;;;0.70;0.70;;;;;;;;;;5027862;28;20176;-81
2023/04/01 10:52:53;;;;;;;0.80;0.80;;;;;;;;;;5035565;28;20215;-81
2023/04/01 10:55:38;;;;;;;0.70;0.70;;;;;;;;;;5036574;28;20261;-80
2023/04/01 10:58:39;;;;;;;0.70;0.70;;;;;;;;;;5025471;28;20208;-81
2023/04/01 11:01:19;;;;;;;0.60;0.60;;;;;;;;;;5010623;28;20184;-81
2023/04/01 11:03:56;;;;;;;0.60;0.60;;;;;;;;;;5036541;28;20211;-81
2023/04/01 11:06:40;;;;;;;0.73;0.73;;;;;;;;;;5013664;28;20170;-82
2023/04/01 11:09:06;;;;;;;0.70;0.70;;;;;;;;;;5031506;28;20172;-82
2023/04/01 11:11:44;;;;;;;0.70;0.70;;;;;;;;;;5037331;28;20275;-80
2023/04/01 11:14:25;;;;;;;0.57;0.57;;;;;;;;;;5025731;28;20196;-81
2023/04/01 11:16:57;;;;;;;0.70;0.70;;;;;;;;;;5034431;28;20204;-81
2023/04/01 11:19:39;;;;;;;0.60;0.60;;;;;;;;;;5037569;28;20639;-82
2023/04/01 11:22:17;;;;;;;0.60;0.60;;;;;;;;;;5023952;28;20180;-84
2023/04/01 11:24:58;;;;;;;0.60;0.60;;;;;;;;;;5022934;28;20188;-82
2023/04/01 11:27:37;;;;;;;0.70;0.70;;;;;;;;;;5034544;28;20219;-80
2023/04/01 11:30:22;;;;;;;0.70;0.70;;;;;;;;;;5025564;28;20184;-84
2023/04/01 11:32:58;;;;;;;0.70;0.70;;;;;;;;;;5030872;28;20196;-81
2023/04/01 11:35:26;;;;;;;0.70;0.70;;;;;;;;;;5033852;28;20183;-80
2023/04/01 11:37:55;;;;;;;0.70;0.70;;;;;;;;;;5023023;28;20608;-81
2023/04/01 11:40:30;;;;;;;0.70;0.70;;;;;;;;;;5026441;28;20284;-82
2023/04/01 11:43:15;;;;;;;0.70;0.70;;;;;;;;;;5030133;28;20202;-79
2023/04/01 11:45:41;;;;;;;0.70;0.70;;;;;;;;;;5024820;28;20267;-81
2023/04/01 11:48:25;;;;;;;0.70;0.70;;;;;;;;;;5020953;28;20215;-82
2023/04/01 11:51:04;;;;;;;0.60;0.60;;;;;;;;;;5017045;28;20625;-81
2023/04/01 11:53:42;;;;;;;0.70;0.70;;;;;;;;;;5014019;28;20200;-82
2023/04/01 11:56:08;;;;;;;0.60;0.60;;;;;;;;;;5021696;28;20175;-80
2023/04/01 11:58:43;;;;;;;0.70;0.70;;;;;;;;;;5018758;28;20569;-81
2023/04/01 12:01:09;;;;;;;0.73;0.73;;;;;;;;;;5014903;28;20246;-80
2023/04/01 12:03:55;;;;;;;0.70;0.70;;;;;;;;;;5018868;28;20201;-80
2023/04/01 12:06:24;;;;;;;0.70;0.70;;;;;;;;;;5020432;28;20188;-80
2023/04/01 12:08:53;;;;;;;0.60;0.60;;;;;;;;;;5029723;28;20195;-80
2023/04/01 12:11:26;;;;;;;0.50;0.50;;;;;;;;;;5030165;28;20201;-84
2023/04/01 12:14:21;;;;;;;0.70;0.70;;;;;;;;;;5035338;28;20191;-79
2023/04/01 12:16:55;;;;;;;0.60;0.60;;;;;;;;;;5025388;28;20617;-84
2023/04/01 12:19:44;;;;;;;0.67;0.67;;;;;;;;;;5027312;28;20250;-82
2023/04/01 12:22:28;;;;;;;0.60;0.60;;;;;;;;;;5037917;28;20180;-82
2023/04/01 12:25:08;;;;;;;0.70;0.70;;;;;;;;;;5031301;28;20683;-81
2023/04/01 12:27:41;;;;;;;0.60;0.60;;;;;;;;;;5025814;28;20180;-81
2023/04/01 12:30:10;;;;;;;0.70;0.70;;;;;;;;;;5037543;28;20172;-82
2023/04/01 12:32:47;;;;;;;0.50;0.50;;;;;;;;;;5020619;28;20181;-81
2023/04/01 12:35:13;;;;;;;0.60;0.60;;;;;;;;;;5022028;28;20176;-81
2023/04/01 12:37:42;;;;;;;0.60;0.60;;;;;;;;;;5022870;28;20215;-82
2023/04/01 12:40:18;;;;;;;0.50;0.50;;;;;;;;;;5023656;28;20197;-81
2023/04/01 12:42:51;;;;;;;0.70;0.70;;;;;;;;;;5032844;28;20188;-81
2023/04/01 12:45:16;;;;;;;0.60;0.60;;;;;;;;;;5033267;28;20176;-82
2023/04/01 12:48:01;;;;;;;0.70;0.70;;;;;;;;;;5024137;28;20195;-80
2023/04/01 12:50:30;;;;;;;0.67;0.67;;;;;;;;;;5022944;28;20176;-82
2023/04/01 12:53:02;;;;;;;0.60;0.60;;;;;;;;;;5020224;28;20276;-83
2023/04/01 12:55:40;;;;;;;0.60;0.60;;;;;;;;;;5022631;28;20188;-82
2023/04/01 12:58:17;;;;;;;0.60;0.60;;;;;;;;;;5022236;28;20196;-83
2023/04/01 13:01:01;;;;;;;0.57;0.57;;;;;;;;;;5022679;28;20189;-82
2023/04/01 13:03:36;;;;;;;0.40;0.40;;;;;;;;;;5026472;28;20224;-82
2023/04/01 13:06:14;;;;;;;0.50;0.50;;;;;;;;;;5032048;28;20232;-82
2023/04/01 13:08:46;;;;;;;0.50;0.50;;;;;;;;;;5028444;28;20264;-81
2023/04/01 13:11:31;;;;;;;0.60;0.60;;;;;;;;;;5020741;28;20187;-82
2023/04/01 13:14:16;;;;;;;0.50;0.50;;;;;;;;;;5019241;28;20200;-82
2023/04/01 13:16:47;;;;;;;0.50;0.50;;;;;;;;;;5031764;28;20215;-81
2023/04/01 13:19:26;;;;;;;0.70;0.70;;;;;;;;;;5030306;28;20202;-85
2023/04/01 13:22:12;;;;;;;0.50;0.50;;;;;;;;;;5038195;28;20202;-85
2023/04/01 13:24:41;;;;;;;0.63;0.63;;;;;;;;;;5022879;28;20206;-84
2023/04/01 13:27:26;;;;;;;0.63;0.63;;;;;;;;;;5019844;28;20192;-84
2023/04/01 13:30:10;;;;;;;0.50;0.50;;;;;;;;;;5017885;28;20180;-83
2023/04/01 13:32:45;;;;;;;0.50;0.50;;;;;;;;;;4999341;28;20172;-84
2023/04/01 13:35:17;;;;;;;0.60;0.60;;;;;;;;;;5018730;28;20191;-84
2023/04/01 13:37:43;;;;;;;0.70;0.70;;;;;;;;;;5019352;28;20575;-87
2023/04/01 13:40:26;;;;;;;0.70;0.70;;;;;;;;;;5021146;28;20254;-86
2023/04/01 13:43:02;;;;;;;0.50;0.50;;;;;;;;;;5019724;28;20280;-85
2023/04/01 13:45:46;;;;;;;0.60;0.60;;;;;;;;;;5032974;28;20602;-85
2023/04/01 13:48:18;;;;;;;0.57;0.57;;;;;;;;;;5006970;28;20635;-85
2023/04/01 13:51:01;;;;;;;0.60;0.60;;;;;;;;;;5028675;28;20184;-85
2023/04/01 13:53:30;;;;;;;0.60;0.60;;;;;;;;;;5018807;28;20200;-86
2023/04/01 13:56:15;;;;;;;0.50;0.50;;;;;;;;;;5019189;28;20181;-87
2023/04/01 13:58:44;;;;;;;0.60;0.60;;;;;;;;;;5019585;28;20275;-87
2023/04/01 14:01:10;;;;;;;0.70;0.70;;;;;;;;;;5019646;28;20183;-85
2023/04/01 14:03:40;;;;;;;0.50;0.50;;;;;;;;;;5018500;28;20200;-87
2023/04/01 14:06:06;;;;;;;0.40;0.40;;;;;;;;;;5038125;28;20258;-86
2023/04/01 14:08:50;;;;;;;0.70;0.70;;;;;;;;;;5033573;28;20204;-86
2023/04/01 14:11:30;;;;;;;0.60;0.60;;;;;;;;;;5017723;28;20172;-87
2023/04/01 14:14:05;;;;;;;0.60;0.60;;;;;;;;;;5034217;28;20226;-88
2023/04/01 14:16:37;;;;;;;0.60;0.60;;;;;;;;;;5021730;28;20222;-84
2023/04/01 14:19:08;;;;;;;0.50;0.50;;;;;;;;;;5023570;28;20181;-84
2023/04/01 14:21:37;;;;;;;0.50;0.50;;;;;;;;;;5039193;28;20187;-85
2023/04/01 14:24:22;;;;;;;0.50;0.50;;;;;;;;;;5026243;28;20204;-84
2023/04/01 14:26:54;;;;;;;0.50;0.50;;;;;;;;;;5036935;28;20180;-86
2023/04/01 14:29:26;;;;;;;0.50;0.50;;;;;;;;;;5034142;28;20239;-84
2023/04/01 14:31:56;;;;;;;0.60;0.60;;;;;;;;;;5023174;28;20177;-83
2023/04/01 14:34:40;;;;;;;0.50;0.50;;;;;;;;;;5024889;28;20682;-83
2023/04/01 14:37:06;;;;;;;0.50;0.50;;;;;;;;;;5029346;28;20273;-84
2023/04/01 14:39:51;;;;;;;0.60;0.60;;;;;;;;;;5036218;28;20647;-84
2023/04/01 14:42:29;;;;;;;0.60;0.60;;;;;;;;;;5015613;28;20302;-82
2023/04/01 14:45:07;;;;;;;0.60;0.60;;;;;;;;;;5048434;28;20203;-80
2023/04/01 14:47:44;;;;;;;0.60;0.60;;;;;;;;;;5052325;28;20174;-81
2023/04/01 14:50:19;;;;;;;0.60;0.60;;;;;;;;;;5041430;28;20167;-80
2023/04/01 14:52:52;;;;;;;0.50;0.50;;;;;;;;;;5049139;28;20179;-80
2023/04/01 14:55:30;;;;;;;0.53;0.53;;;;;;;;;;5050448;28;20192;-81
2023/04/01 14:58:00;;;;;;;0.50;0.50;;;;;;;;;;5040391;28;20212;-80
2023/04/01 15:00:26;;;;;;;0.50;0.50;;;;;;;;;;5045069;28;20179;-82
2023/04/01 15:03:03;;;;;;;0.60;0.60;;;;;;;;;;5048079;28;20197;-82
2023/04/01 15:05:45;;;;;;;0.50;0.50;;;;;;;;;;5051083;28;20182;-81
2023/04/01 15:08:30;;;;;;;0.50;0.50;;;;;;;;;;5034273;28;20179;-81
2023/04/01 15:11:08;;;;;;;0.63;0.63;;;;;;;;;;5023598;28;20203;-83
2023/04/01 15:13:45;;;;;;;0.60;0.60;;;;;;;;;;5022815;28;20282;-83